sensor_id;sensor_type;location;lat;lon;timestamp;pressure;altitude;pressure_sealevel;temperature;humidity
25510;BME280;13413;52.336;21.200;2022-12-16T00:02:07;100349.55;;;0.58;59.97
25510;BME280;13413;52.336;21.200;2022-12-16T00:05:13;100338.54;;;0.57;59.99
25510;BME280;13413;52.336;21.200;2022-12-16T00:08:20;100344.30;;;0.59;60.09
25510;BME280;13413;52.336;21.200;2022-12-16T00:11:27;100354.50;;;0.57;60.02
25510;BME280;13413;52.336;21.200;2022-12-16T00:14:33;100349.18;;;0.54;59.91
25510;BME280;13413;52.336;21.200;2022-12-16T00:17:39;100340.35;;;0.53;59.99
25510;BME280;13413;52.336;21.200;2022-12-16T00:20:46;100341.83;;;0.50;59.90
25510;BME280;13413;52.336;21.200;2022-12-16T00:23:54;100344.61;;;0.47;59.97
25510;BME280;13413;52.336;21.200;2022-12-16T00:27:00;100353.09;;;0.43;60.05
25510;BME280;13413;52.336;21.200;2022-12-16T00:30:09;100352.86;;;0.44;59.91
25510;BME280;13413;52.336;21.200;2022-12-16T00:33:15;100349.16;;;0.40;60.05
25510;BME280;13413;52.336;21.200;2022-12-16T00:36:22;100350.50;;;0.45;60.20
25510;BME280;13413;52.336;21.200;2022-12-16T00:48:16;100355.67;;;0.39;60.23
25510;BME280;13413;52.336;21.200;2022-12-16T00:51:23;100357.61;;;0.33;60.02
25510;BME280;13413;52.336;21.200;2022-12-16T00:54:29;100354.35;;;0.31;60.09
25510;BME280;13413;52.336;21.200;2022-12-16T00:57:36;100351.53;;;0.31;59.95
25510;BME280;13413;52.336;21.200;2022-12-16T01:00:42;100356.30;;;0.30;60.09
25510;BME280;13413;52.336;21.200;2022-12-16T01:03:49;100360.30;;;0.33;60.05
25510;BME280;13413;52.336;21.200;2022-12-16T01:06:57;100354.68;;;0.31;60.07
25510;BME280;13413;52.336;21.200;2022-12-16T01:10:05;100354.23;;;0.32;60.10
25510;BME280;13413;52.336;21.200;2022-12-16T01:13:12;100349.84;;;0.35;60.21
25510;BME280;13413;52.336;21.200;2022-12-16T01:16:18;100353.37;;;0.37;60.06
25510;BME280;13413;52.336;21.200;2022-12-16T01:19:25;100349.10;;;0.34;60.06
25510;BME280;13413;52.336;21.200;2022-12-16T01:22:32;100357.40;;;0.32;60.09
25510;BME280;13413;52.336;21.200;2022-12-16T01:25:39;100364.48;;;0.32;60.15
25510;BME280;13413;52.336;21.200;2022-12-16T01:28:47;100370.44;;;0.32;60.02
25510;BME280;13413;52.336;21.200;2022-12-16T01:31:54;100369.52;;;0.25;59.87
25510;BME280;13413;52.336;21.200;2022-12-16T01:35:03;100368.60;;;0.19;60.03
25510;BME280;13413;52.336;21.200;2022-12-16T01:38:09;100364.90;;;0.17;60.00
25510;BME280;13413;52.336;21.200;2022-12-16T01:41:16;100352.48;;;0.11;59.98
25510;BME280;13413;52.336;21.200;2022-12-16T01:44:25;100349.90;;;0.08;60.09
25510;BME280;13413;52.336;21.200;2022-12-16T01:47:33;100350.63;;;0.08;59.97
25510;BME280;13413;52.336;21.200;2022-12-16T01:50:40;100340.30;;;0.07;60.11
25510;BME280;13413;52.336;21.200;2022-12-16T01:53:48;100331.95;;;-0.04;60.02
25510;BME280;13413;52.336;21.200;2022-12-16T01:56:58;100321.83;;;-0.06;60.16
25510;BME280;13413;52.336;21.200;2022-12-16T02:00:19;100321.46;;;-0.03;60.20
25510;BME280;13413;52.336;21.200;2022-12-16T02:03:26;100321.33;;;-0.04;60.22
25510;BME280;13413;52.336;21.200;2022-12-16T02:06:35;100308.16;;;-0.09;60.09
25510;BME280;13413;52.336;21.200;2022-12-16T02:09:42;100294.90;;;-0.13;60.13
25510;BME280;13413;52.336;21.200;2022-12-16T02:13:07;100308.45;;;-0.20;60.09
25510;BME280;13413;52.336;21.200;2022-12-16T02:16:23;100315.84;;;-0.21;60.27
25510;BME280;13413;52.336;21.200;2022-12-16T02:23:24;100304.25;;;-0.15;60.36
25510;BME280;13413;52.336;21.200;2022-12-16T02:26:56;100290.10;;;-0.18;60.29
25510;BME280;13413;52.336;21.200;2022-12-16T02:30:29;100288.08;;;-0.20;60.31
25510;BME280;13413;52.336;21.200;2022-12-16T02:34:04;100302.09;;;-0.21;60.32
25510;BME280;13413;52.336;21.200;2022-12-16T02:37:31;100306.95;;;-0.23;60.47
25510;BME280;13413;52.336;21.200;2022-12-16T02:40:44;100293.77;;;-0.31;60.37
25510;BME280;13413;52.336;21.200;2022-12-16T02:43:56;100285.45;;;-0.39;60.34
25510;BME280;13413;52.336;21.200;2022-12-16T02:47:04;100285.47;;;-0.41;60.61
25510;BME280;13413;52.336;21.200;2022-12-16T02:50:17;100280.75;;;-0.36;60.62
25510;BME280;13413;52.336;21.200;2022-12-16T02:53:25;100277.06;;;-0.40;60.35
25510;BME280;13413;52.336;21.200;2022-12-16T02:56:44;100271.96;;;-0.44;60.46
25510;BME280;13413;52.336;21.200;2022-12-16T02:59:53;100270.46;;;-0.50;60.69
25510;BME280;13413;52.336;21.200;2022-12-16T03:09:03;100260.92;;;-0.43;60.66
25510;BME280;13413;52.336;21.200;2022-12-16T03:12:13;100253.47;;;-0.41;60.68
25510;BME280;13413;52.336;21.200;2022-12-16T03:15:27;100244.23;;;-0.45;60.43
25510;BME280;13413;52.336;21.200;2022-12-16T03:18:36;100244.44;;;-0.45;60.62
25510;BME280;13413;52.336;21.200;2022-12-16T03:21:49;100240.04;;;-0.45;60.67
25510;BME280;13413;52.336;21.200;2022-12-16T03:24:57;100242.58;;;-0.44;60.67
25510;BME280;13413;52.336;21.200;2022-12-16T03:28:12;100233.27;;;-0.45;60.79
25510;BME280;13413;52.336;21.200;2022-12-16T03:31:32;100236.59;;;-0.43;60.42
25510;BME280;13413;52.336;21.200;2022-12-16T03:34:44;100249.72;;;-0.51;60.52
25510;BME280;13413;52.336;21.200;2022-12-16T03:37:55;100252.84;;;-0.51;60.76
25510;BME280;13413;52.336;21.200;2022-12-16T03:41:04;100249.10;;;-0.55;60.66
25510;BME280;13413;52.336;21.200;2022-12-16T03:44:12;100241.42;;;-0.54;60.65
25510;BME280;13413;52.336;21.200;2022-12-16T03:47:19;100235.39;;;-0.60;60.60
25510;BME280;13413;52.336;21.200;2022-12-16T03:50:28;100230.03;;;-0.65;60.57
25510;BME280;13413;52.336;21.200;2022-12-16T03:53:37;100230.88;;;-0.65;60.75
25510;BME280;13413;52.336;21.200;2022-12-16T03:56:43;100222.34;;;-0.60;60.78
25510;BME280;13413;52.336;21.200;2022-12-16T03:59:49;100216.98;;;-0.62;60.59
25510;BME280;13413;52.336;21.200;2022-12-16T04:02:56;100195.72;;;-0.66;60.64
25510;BME280;13413;52.336;21.200;2022-12-16T04:06:02;100201.42;;;-0.68;60.63
25510;BME280;13413;52.336;21.200;2022-12-16T04:09:09;100204.53;;;-0.73;60.72
25510;BME280;13413;52.336;21.200;2022-12-16T04:12:16;100201.70;;;-0.72;60.85
25510;BME280;13413;52.336;21.200;2022-12-16T04:15:23;100199.09;;;-0.72;60.82
25510;BME280;13413;52.336;21.200;2022-12-16T04:18:30;100205.19;;;-0.77;60.81
25510;BME280;13413;52.336;21.200;2022-12-16T04:21:36;100211.14;;;-0.83;60.84
25510;BME280;13413;52.336;21.200;2022-12-16T04:24:43;100210.60;;;-0.80;61.07
25510;BME280;13413;52.336;21.200;2022-12-16T04:27:50;100205.30;;;-0.76;61.05
25510;BME280;13413;52.336;21.200;2022-12-16T04:30:57;100204.23;;;-0.76;60.98
25510;BME280;13413;52.336;21.200;2022-12-16T04:34:03;100205.00;;;-0.77;60.77
25510;BME280;13413;52.336;21.200;2022-12-16T04:37:10;100210.44;;;-0.77;60.90
25510;BME280;13413;52.336;21.200;2022-12-16T04:40:16;100214.04;;;-0.79;60.80
25510;BME280;13413;52.336;21.200;2022-12-16T04:43:22;100216.54;;;-0.78;60.85
25510;BME280;13413;52.336;21.200;2022-12-16T04:46:28;100219.80;;;-0.80;60.74
25510;BME280;13413;52.336;21.200;2022-12-16T04:49:37;100220.02;;;-0.83;60.83
25510;BME280;13413;52.336;21.200;2022-12-16T04:52:43;100216.08;;;-0.84;61.00
25510;BME280;13413;52.336;21.200;2022-12-16T04:55:50;100211.84;;;-0.78;61.10
25510;BME280;13413;52.336;21.200;2022-12-16T04:58:56;100209.41;;;-0.73;60.81
25510;BME280;13413;52.336;21.200;2022-12-16T05:02:03;100206.86;;;-0.74;60.90
25510;BME280;13413;52.336;21.200;2022-12-16T05:05:09;100205.33;;;-0.69;60.92
25510;BME280;13413;52.336;21.200;2022-12-16T05:08:16;100200.70;;;-0.75;60.75
25510;BME280;13413;52.336;21.200;2022-12-16T05:11:22;100195.48;;;-0.77;60.91
25510;BME280;13413;52.336;21.200;2022-12-16T05:14:29;100196.91;;;-0.80;60.79
25510;BME280;13413;52.336;21.200;2022-12-16T05:17:35;100188.58;;;-0.81;61.00
25510;BME280;13413;52.336;21.200;2022-12-16T05:20:43;100183.79;;;-0.72;60.86
25510;BME280;13413;52.336;21.200;2022-12-16T05:29:34;100189.40;;;-0.75;60.77
25510;BME280;13413;52.336;21.200;2022-12-16T05:32:40;100187.58;;;-0.78;60.67
25510;BME280;13413;52.336;21.200;2022-12-16T05:35:49;100174.77;;;-0.84;60.86
25510;BME280;13413;52.336;21.200;2022-12-16T05:38:56;100177.04;;;-0.84;60.87
25510;BME280;13413;52.336;21.200;2022-12-16T05:42:03;100178.16;;;-0.80;60.89
25510;BME280;13413;52.336;21.200;2022-12-16T05:45:09;100179.62;;;-0.78;60.88
25510;BME280;13413;52.336;21.200;2022-12-16T05:48:15;100173.00;;;-0.81;60.89
25510;BME280;13413;52.336;21.200;2022-12-16T05:51:22;100190.73;;;-0.81;60.98
25510;BME280;13413;52.336;21.200;2022-12-16T05:54:28;100205.63;;;-0.78;60.78
25510;BME280;13413;52.336;21.200;2022-12-16T05:57:35;100204.97;;;-0.76;60.80
25510;BME280;13413;52.336;21.200;2022-12-16T06:00:41;100207.45;;;-0.73;60.93
25510;BME280;13413;52.336;21.200;2022-12-16T06:07:07;100206.83;;;-0.64;60.76
25510;BME280;13413;52.336;21.200;2022-12-16T06:10:14;100209.83;;;-0.64;60.75
25510;BME280;13413;52.336;21.200;2022-12-16T06:13:20;100211.14;;;-0.66;60.76
25510;BME280;13413;52.336;21.200;2022-12-16T06:16:26;100219.12;;;-0.70;60.65
25510;BME280;13413;52.336;21.200;2022-12-16T06:19:33;100229.94;;;-0.71;60.77
25510;BME280;13413;52.336;21.200;2022-12-16T06:22:39;100225.55;;;-0.71;60.87
25510;BME280;13413;52.336;21.200;2022-12-16T06:25:45;100225.20;;;-0.70;60.92
25510;BME280;13413;52.336;21.200;2022-12-16T06:28:51;100223.98;;;-0.70;61.06
25510;BME280;13413;52.336;21.200;2022-12-16T06:31:58;100223.41;;;-0.72;60.84
25510;BME280;13413;52.336;21.200;2022-12-16T06:35:05;100218.47;;;-0.74;61.00
25510;BME280;13413;52.336;21.200;2022-12-16T06:38:12;100214.14;;;-0.71;60.95
25510;BME280;13413;52.336;21.200;2022-12-16T06:41:18;100219.28;;;-0.75;60.91
25510;BME280;13413;52.336;21.200;2022-12-16T06:44:24;100224.85;;;-0.73;60.95
25510;BME280;13413;52.336;21.200;2022-12-16T06:47:31;100221.00;;;-0.72;60.80
25510;BME280;13413;52.336;21.200;2022-12-16T06:50:37;100208.70;;;-0.73;60.84
25510;BME280;13413;52.336;21.200;2022-12-16T06:53:44;100205.98;;;-0.74;61.06
25510;BME280;13413;52.336;21.200;2022-12-16T06:56:50;100206.78;;;-0.70;60.91
25510;BME280;13413;52.336;21.200;2022-12-16T06:59:56;100211.14;;;-0.68;60.90
25510;BME280;13413;52.336;21.200;2022-12-16T07:03:03;100205.67;;;-0.67;60.94
25510;BME280;13413;52.336;21.200;2022-12-16T07:06:09;100206.11;;;-0.63;60.99
25510;BME280;13413;52.336;21.200;2022-12-16T07:09:16;100208.94;;;-0.62;61.06
25510;BME280;13413;52.336;21.200;2022-12-16T07:12:23;100215.25;;;-0.63;61.03
25510;BME280;13413;52.336;21.200;2022-12-16T07:15:30;100222.31;;;-0.62;60.94
25510;BME280;13413;52.336;21.200;2022-12-16T07:18:37;100226.14;;;-0.59;60.93
25510;BME280;13413;52.336;21.200;2022-12-16T07:21:43;100229.77;;;-0.57;60.99
25510;BME280;13413;52.336;21.200;2022-12-16T07:24:51;100226.80;;;-0.56;60.97
25510;BME280;13413;52.336;21.200;2022-12-16T07:27:57;100216.06;;;-0.57;61.00
25510;BME280;13413;52.336;21.200;2022-12-16T07:34:10;100228.13;;;-0.61;61.02
25510;BME280;13413;52.336;21.200;2022-12-16T07:37:17;100228.59;;;-0.60;61.01
25510;BME280;13413;52.336;21.200;2022-12-16T07:40:21;100227.41;;;-0.58;61.01
25510;BME280;13413;52.336;21.200;2022-12-16T07:49:13;100227.38;;;-0.45;61.08
25510;BME280;13413;52.336;21.200;2022-12-16T07:52:19;100212.11;;;-0.43;61.30
25510;BME280;13413;52.336;21.200;2022-12-16T07:55:26;100212.85;;;-0.38;61.10
25510;BME280;13413;52.336;21.200;2022-12-16T07:58:32;100224.02;;;-0.41;61.08
25510;BME280;13413;52.336;21.200;2022-12-16T08:01:39;100224.10;;;-0.48;61.05
25510;BME280;13413;52.336;21.200;2022-12-16T08:04:46;100221.23;;;-0.46;61.39
25510;BME280;13413;52.336;21.200;2022-12-16T08:07:53;100211.02;;;-0.47;61.33
25510;BME280;13413;52.336;21.200;2022-12-16T08:10:59;100204.14;;;-0.48;61.34
25510;BME280;13413;52.336;21.200;2022-12-16T08:14:06;100194.28;;;-0.49;61.34
25510;BME280;13413;52.336;21.200;2022-12-16T08:20:36;100198.29;;;-0.44;61.50
25510;BME280;13413;52.336;21.200;2022-12-16T08:23:43;100199.23;;;-0.40;61.46
25510;BME280;13413;52.336;21.200;2022-12-16T08:26:49;100186.59;;;-0.38;61.46
25510;BME280;13413;52.336;21.200;2022-12-16T08:29:56;100181.95;;;-0.39;61.49
25510;BME280;13413;52.336;21.200;2022-12-16T08:33:03;100180.77;;;-0.35;61.57
25510;BME280;13413;52.336;21.200;2022-12-16T08:36:09;100176.19;;;-0.33;61.50
25510;BME280;13413;52.336;21.200;2022-12-16T08:42:22;100173.64;;;-0.27;61.66
25510;BME280;13413;52.336;21.200;2022-12-16T08:45:29;100169.08;;;-0.24;61.67
25510;BME280;13413;52.336;21.200;2022-12-16T08:48:35;100170.95;;;-0.22;61.71
25510;BME280;13413;52.336;21.200;2022-12-16T08:51:42;100175.83;;;-0.22;61.77
25510;BME280;13413;52.336;21.200;2022-12-16T08:54:49;100177.15;;;-0.23;61.83
25510;BME280;13413;52.336;21.200;2022-12-16T08:57:56;100173.60;;;-0.20;61.84
25510;BME280;13413;52.336;21.200;2022-12-16T09:01:02;100179.80;;;-0.14;62.03
25510;BME280;13413;52.336;21.200;2022-12-16T09:04:15;100182.86;;;-0.11;61.93
25510;BME280;13413;52.336;21.200;2022-12-16T09:07:22;100171.54;;;-0.13;61.87
25510;BME280;13413;52.336;21.200;2022-12-16T09:10:28;100166.45;;;-0.10;62.03
25510;BME280;13413;52.336;21.200;2022-12-16T09:13:35;100155.16;;;-0.10;61.95
25510;BME280;13413;52.336;21.200;2022-12-16T09:16:42;100145.45;;;-0.10;62.10
25510;BME280;13413;52.336;21.200;2022-12-16T09:20:01;100133.23;;;-0.14;62.07
25510;BME280;13413;52.336;21.200;2022-12-16T09:23:20;100130.56;;;-0.11;62.10
25510;BME280;13413;52.336;21.200;2022-12-16T09:26:40;100118.23;;;-0.04;62.21
25510;BME280;13413;52.336;21.200;2022-12-16T09:29:59;100112.43;;;0.04;62.22
25510;BME280;13413;52.336;21.200;2022-12-16T09:33:18;100106.09;;;0.10;62.24
25510;BME280;13413;52.336;21.200;2022-12-16T09:36:37;100097.19;;;0.14;62.25
25510;BME280;13413;52.336;21.200;2022-12-16T09:39:57;100098.34;;;0.18;62.23
25510;BME280;13413;52.336;21.200;2022-12-16T09:43:31;100089.52;;;0.22;62.24
25510;BME280;13413;52.336;21.200;2022-12-16T09:47:02;100091.25;;;0.28;62.34
25510;BME280;13413;52.336;21.200;2022-12-16T09:50:32;100085.11;;;0.33;62.26
25510;BME280;13413;52.336;21.200;2022-12-16T09:53:54;100080.42;;;0.34;62.35
25510;BME280;13413;52.336;21.200;2022-12-16T09:57:15;100072.63;;;0.35;62.32
25510;BME280;13413;52.336;21.200;2022-12-16T10:00:34;100068.61;;;0.40;62.41
25510;BME280;13413;52.336;21.200;2022-12-16T10:10:28;100061.44;;;0.50;62.48
25510;BME280;13413;52.336;21.200;2022-12-16T10:13:58;100061.79;;;0.58;62.46
25510;BME280;13413;52.336;21.200;2022-12-16T10:17:23;100071.00;;;0.65;62.42
25510;BME280;13413;52.336;21.200;2022-12-16T10:20:45;100068.27;;;0.69;62.36
25510;BME280;13413;52.336;21.200;2022-12-16T10:24:16;100072.52;;;0.70;62.41
25510;BME280;13413;52.336;21.200;2022-12-16T10:27:44;100071.13;;;0.77;62.35
25510;BME280;13413;52.336;21.200;2022-12-16T10:31:12;100074.20;;;0.84;62.26
25510;BME280;13413;52.336;21.200;2022-12-16T10:34:35;100085.48;;;0.84;62.21
25510;BME280;13413;52.336;21.200;2022-12-16T10:37:56;100082.13;;;0.83;62.27
25510;BME280;13413;52.336;21.200;2022-12-16T10:41:18;100077.48;;;0.78;62.26
25510;BME280;13413;52.336;21.200;2022-12-16T10:44:41;100064.45;;;0.75;62.30
25510;BME280;13413;52.336;21.200;2022-12-16T10:48:06;100062.46;;;0.74;62.36
25510;BME280;13413;52.336;21.200;2022-12-16T10:51:28;100058.55;;;0.71;62.48
25510;BME280;13413;52.336;21.200;2022-12-16T10:54:54;100058.58;;;0.70;62.50
25510;BME280;13413;52.336;21.200;2022-12-16T10:58:24;100055.96;;;0.75;62.59
25510;BME280;13413;52.336;21.200;2022-12-16T11:01:57;100050.58;;;0.79;62.64
25510;BME280;13413;52.336;21.200;2022-12-16T11:05:30;100043.28;;;0.85;62.60
25510;BME280;13413;52.336;21.200;2022-12-16T11:08:49;100046.69;;;0.86;62.55
25510;BME280;13413;52.336;21.200;2022-12-16T11:12:26;100048.06;;;0.86;62.53
25510;BME280;13413;52.336;21.200;2022-12-16T11:15:48;100052.02;;;0.87;62.64
25510;BME280;13413;52.336;21.200;2022-12-16T11:19:26;100047.13;;;0.91;62.58
25510;BME280;13413;52.336;21.200;2022-12-16T11:26:34;100026.43;;;0.93;62.67
25510;BME280;13413;52.336;21.200;2022-12-16T11:29:56;100025.09;;;0.98;62.83
25510;BME280;13413;52.336;21.200;2022-12-16T11:33:20;100032.23;;;1.00;62.81
25510;BME280;13413;52.336;21.200;2022-12-16T11:36:41;100032.90;;;1.00;62.69
25510;BME280;13413;52.336;21.200;2022-12-16T11:40:02;100030.16;;;1.04;62.78
25510;BME280;13413;52.336;21.200;2022-12-16T11:43:37;100028.39;;;1.00;62.92
25510;BME280;13413;52.336;21.200;2022-12-16T19:18:15;100299.66;;;1.17;62.85
25510;BME280;13413;52.336;21.200;2022-12-16T19:21:33;100304.34;;;1.15;62.94
25510;BME280;13413;52.336;21.200;2022-12-16T19:24:53;100309.17;;;1.16;63.04
25510;BME280;13413;52.336;21.200;2022-12-16T19:28:15;100322.52;;;1.19;63.12
25510;BME280;13413;52.336;21.200;2022-12-16T19:31:33;100330.63;;;1.20;63.10
25510;BME280;13413;52.336;21.200;2022-12-16T19:34:51;100336.02;;;1.22;63.04
25510;BME280;13413;52.336;21.200;2022-12-16T19:38:23;100341.03;;;1.25;63.13
25510;BME280;13413;52.336;21.200;2022-12-16T19:41:41;100338.64;;;1.24;63.07
25510;BME280;13413;52.336;21.200;2022-12-16T19:45:01;100344.95;;;1.24;63.04
25510;BME280;13413;52.336;21.200;2022-12-16T19:48:18;100347.52;;;1.26;62.94
25510;BME280;13413;52.336;21.200;2022-12-16T19:51:36;100346.55;;;1.28;62.94
25510;BME280;13413;52.336;21.200;2022-12-16T19:54:54;100350.73;;;1.30;63.05
25510;BME280;13413;52.336;21.200;2022-12-16T19:58:18;100356.14;;;1.28;62.99
25510;BME280;13413;52.336;21.200;2022-12-16T20:01:35;100350.44;;;1.34;62.92
25510;BME280;13413;52.336;21.200;2022-12-16T20:04:54;100356.31;;;1.32;62.98
25510;BME280;13413;52.336;21.200;2022-12-16T20:08:13;100363.94;;;1.31;62.88
25510;BME280;13413;52.336;21.200;2022-12-16T20:11:31;100366.27;;;1.27;62.88
25510;BME280;13413;52.336;21.200;2022-12-16T20:14:50;100374.68;;;1.20;62.79
25510;BME280;13413;52.336;21.200;2022-12-16T20:18:07;100378.73;;;1.15;62.88
25510;BME280;13413;52.336;21.200;2022-12-16T20:21:25;100381.92;;;1.12;62.81
25510;BME280;13413;52.336;21.200;2022-12-16T20:24:45;100376.27;;;1.08;62.93
25510;BME280;13413;52.336;21.200;2022-12-16T20:28:03;100379.55;;;1.04;62.95
25510;BME280;13413;52.336;21.200;2022-12-16T20:31:24;100379.45;;;1.06;63.05
25510;BME280;13413;52.336;21.200;2022-12-16T20:34:42;100384.46;;;1.03;62.92
25510;BME280;13413;52.336;21.200;2022-12-16T20:38:00;100395.35;;;1.03;62.98
25510;BME280;13413;52.336;21.200;2022-12-16T20:41:18;100409.36;;;1.06;62.96
25510;BME280;13413;52.336;21.200;2022-12-16T20:44:37;100397.34;;;1.11;62.99
25510;BME280;13413;52.336;21.200;2022-12-16T20:47:56;100372.37;;;1.11;62.83
25510;BME280;13413;52.336;21.200;2022-12-16T20:51:16;100368.40;;;1.09;62.84
25510;BME280;13413;52.336;21.200;2022-12-16T20:54:34;100372.08;;;1.04;62.90
25510;BME280;13413;52.336;21.200;2022-12-16T20:57:53;100383.05;;;0.97;62.90
25510;BME280;13413;52.336;21.200;2022-12-16T21:01:13;100391.64;;;0.93;63.07
25510;BME280;13413;52.336;21.200;2022-12-16T21:04:31;100392.28;;;0.97;63.06
25510;BME280;13413;52.336;21.200;2022-12-16T21:16:19;100414.59;;;1.01;62.94
25510;BME280;13413;52.336;21.200;2022-12-16T21:19:39;100415.65;;;1.01;62.92
25510;BME280;13413;52.336;21.200;2022-12-16T21:23:01;100412.85;;;0.99;62.97
25510;BME280;13413;52.336;21.200;2022-12-16T21:26:21;100420.17;;;0.99;62.87
25510;BME280;13413;52.336;21.200;2022-12-16T21:29:41;100421.33;;;0.99;63.14
25510;BME280;13413;52.336;21.200;2022-12-16T21:33:01;100423.55;;;0.98;62.82
25510;BME280;13413;52.336;21.200;2022-12-16T21:36:20;100423.08;;;0.95;62.88
25510;BME280;13413;52.336;21.200;2022-12-16T21:39:40;100420.86;;;0.89;62.94
25510;BME280;13413;52.336;21.200;2022-12-16T21:43:00;100417.29;;;0.88;63.02
25510;BME280;13413;52.336;21.200;2022-12-16T21:46:19;100419.52;;;0.88;63.03
25510;BME280;13413;52.336;21.200;2022-12-16T21:49:38;100424.71;;;0.82;62.91
25510;BME280;13413;52.336;21.200;2022-12-16T21:52:58;100428.80;;;0.78;63.02
25510;BME280;13413;52.336;21.200;2022-12-16T21:56:17;100430.88;;;0.76;62.92
25510;BME280;13413;52.336;21.200;2022-12-16T22:02:56;100432.33;;;0.75;63.03
25510;BME280;13413;52.336;21.200;2022-12-16T22:06:15;100451.52;;;0.77;63.04
25510;BME280;13413;52.336;21.200;2022-12-16T22:09:35;100458.02;;;0.76;63.04
25510;BME280;13413;52.336;21.200;2022-12-16T22:12:54;100459.09;;;0.78;62.98
25510;BME280;13413;52.336;21.200;2022-12-16T22:16:14;100467.14;;;0.80;62.92
25510;BME280;13413;52.336;21.200;2022-12-16T22:19:33;100469.49;;;0.79;62.87
25510;BME280;13413;52.336;21.200;2022-12-16T22:22:53;100466.86;;;0.81;63.10
25510;BME280;13413;52.336;21.200;2022-12-16T22:26:12;100467.81;;;0.80;62.89
25510;BME280;13413;52.336;21.200;2022-12-16T22:29:32;100469.16;;;0.78;62.96
25510;BME280;13413;52.336;21.200;2022-12-16T22:32:51;100485.90;;;0.83;63.01
25510;BME280;13413;52.336;21.200;2022-12-16T22:36:10;100494.36;;;0.82;62.99
25510;BME280;13413;52.336;21.200;2022-12-16T22:39:32;100494.52;;;0.79;63.01
25510;BME280;13413;52.336;21.200;2022-12-16T22:42:51;100498.31;;;0.77;62.89
25510;BME280;13413;52.336;21.200;2022-12-16T22:46:11;100504.23;;;0.77;62.85
25510;BME280;13413;52.336;21.200;2022-12-16T22:49:31;100503.02;;;0.75;62.96
25510;BME280;13413;52.336;21.200;2022-12-16T22:52:51;100502.35;;;0.74;62.88
25510;BME280;13413;52.336;21.200;2022-12-16T22:56:10;100503.38;;;0.77;63.04
25510;BME280;13413;52.336;21.200;2022-12-16T22:59:30;100508.89;;;0.80;62.97
25510;BME280;13413;52.336;21.200;2022-12-16T23:02:55;100512.55;;;0.82;63.04
25510;BME280;13413;52.336;21.200;2022-12-16T23:06:14;100513.45;;;0.80;62.77
25510;BME280;13413;52.336;21.200;2022-12-16T23:09:34;100525.27;;;0.77;62.93
25510;BME280;13413;52.336;21.200;2022-12-16T23:12:54;100523.73;;;0.82;63.06
25510;BME280;13413;52.336;21.200;2022-12-16T23:16:14;100519.68;;;0.85;62.96
25510;BME280;13413;52.336;21.200;2022-12-16T23:19:33;100523.16;;;0.87;62.91
25510;BME280;13413;52.336;21.200;2022-12-16T23:23:09;100529.08;;;0.88;62.95
25510;BME280;13413;52.336;21.200;2022-12-16T23:26:28;100528.77;;;0.82;62.89
25510;BME280;13413;52.336;21.200;2022-12-16T23:35:29;100527.39;;;0.87;63.04
25510;BME280;13413;52.336;21.200;2022-12-16T23:38:50;100524.50;;;0.83;62.89
25510;BME280;13413;52.336;21.200;2022-12-16T23:42:10;100521.08;;;0.85;62.88
25510;BME280;13413;52.336;21.200;2022-12-16T23:45:30;100526.57;;;0.84;62.91
25510;BME280;13413;52.336;21.200;2022-12-16T23:48:50;100535.02;;;0.85;62.88
25510;BME280;13413;52.336;21.200;2022-12-16T23:52:10;100533.81;;;0.85;63.04
25510;BME280;13413;52.336;21.200;2022-12-16T23:55:30;100534.57;;;0.84;62.93
25510;BME280;13413;52.336;21.200;2022-12-16T23:58:49;100537.16;;;0.84;62.88
